sensor_id;sensor_type;location;lat;lon;timestamp;pressure;altitude;pressure_sealevel;temperature;humidity
16664;BME280;8445;51.270;9.434;2023-07-08T00:02:12;99791.44;;;16.86;49.27
16664;BME280;8445;51.270;9.434;2023-07-08T00:04:38;99794.88;;;16.68;50.30
16664;BME280;8445;51.270;9.434;2023-07-08T00:07:05;99797.28;;;16.62;49.69
16664;BME280;8445;51.270;9.434;2023-07-08T00:09:31;99799.88;;;16.43;50.33
16664;BME280;8445;51.270;9.434;2023-07-08T00:11:57;99798.78;;;16.36;50.40
16664;BME280;8445;51.270;9.434;2023-07-08T00:14:23;99793.72;;;16.33;49.87
16664;BME280;8445;51.270;9.434;2023-07-08T00:16:48;99789.91;;;16.36;53.19
16664;BME280;8445;51.270;9.434;2023-07-08T00:19:16;99792.16;;;16.40;51.58
16664;BME280;8445;51.270;9.434;2023-07-08T00:21:47;99786.13;;;16.38;52.58
16664;BME280;8445;51.270;9.434;2023-07-08T00:24:12;99796.50;;;16.41;50.48
16664;BME280;8445;51.270;9.434;2023-07-08T00:26:38;99789.78;;;16.37;50.54
16664;BME280;8445;51.270;9.434;2023-07-08T00:29:08;99791.31;;;16.40;51.15
16664;BME280;8445;51.270;9.434;2023-07-08T00:31:36;99780.38;;;16.33;50.03
16664;BME280;8445;51.270;9.434;2023-07-08T00:34:03;99779.81;;;16.20;50.35
16664;BME280;8445;51.270;9.434;2023-07-08T00:36:29;99774.22;;;16.13;50.79
16664;BME280;8445;51.270;9.434;2023-07-08T00:38:58;99777.75;;;16.04;50.86
16664;BME280;8445;51.270;9.434;2023-07-08T00:41:30;99772.41;;;15.94;54.19
16664;BME280;8445;51.270;9.434;2023-07-08T00:43:59;99778.34;;;15.88;52.45
16664;BME280;8445;51.270;9.434;2023-07-08T00:46:33;99780.56;;;15.82;52.27
16664;BME280;8445;51.270;9.434;2023-07-08T00:51:38;99783.47;;;15.69;55.98
16664;BME280;8445;51.270;9.434;2023-07-08T00:54:08;99773.53;;;15.62;51.90
16664;BME280;8445;51.270;9.434;2023-07-08T00:56:44;99781.38;;;15.53;52.95
16664;BME280;8445;51.270;9.434;2023-07-08T00:59:18;99775.47;;;15.40;54.11
16664;BME280;8445;51.270;9.434;2023-07-08T01:01:46;99783.28;;;15.32;55.01
16664;BME280;8445;51.270;9.434;2023-07-08T01:04:20;99775.44;;;15.30;53.13
16664;BME280;8445;51.270;9.434;2023-07-08T01:06:51;99789.06;;;15.27;53.30
16664;BME280;8445;51.270;9.434;2023-07-08T01:09:25;99781.91;;;15.27;52.62
16664;BME280;8445;51.270;9.434;2023-07-08T01:11:53;99777.41;;;15.18;52.38
16664;BME280;8445;51.270;9.434;2023-07-08T01:14:20;99775.88;;;15.25;51.97
16664;BME280;8445;51.270;9.434;2023-07-08T01:16:47;99785.84;;;15.23;52.18
16664;BME280;8445;51.270;9.434;2023-07-08T01:19:17;99776.69;;;15.16;52.84
16664;BME280;8445;51.270;9.434;2023-07-08T01:22:04;99773.44;;;15.12;57.99
16664;BME280;8445;51.270;9.434;2023-07-08T01:24:31;99771.03;;;15.00;52.77
16664;BME280;8445;51.270;9.434;2023-07-08T01:27:00;99767.94;;;14.94;53.09
16664;BME280;8445;51.270;9.434;2023-07-08T01:29:27;99768.63;;;14.87;53.05
16664;BME280;8445;51.270;9.434;2023-07-08T01:31:55;99765.63;;;14.80;53.47
16664;BME280;8445;51.270;9.434;2023-07-08T01:34:21;99757.53;;;14.81;52.98
16664;BME280;8445;51.270;9.434;2023-07-08T01:36:51;99758.22;;;14.84;53.42
16664;BME280;8445;51.270;9.434;2023-07-08T01:39:19;99759.31;;;14.81;53.59
16664;BME280;8445;51.270;9.434;2023-07-08T01:41:46;99756.44;;;14.63;53.66
16664;BME280;8445;51.270;9.434;2023-07-08T01:44:26;99758.63;;;14.48;58.07
16664;BME280;8445;51.270;9.434;2023-07-08T01:47:07;99756.22;;;14.45;54.73
16664;BME280;8445;51.270;9.434;2023-07-08T01:49:35;99748.09;;;14.46;54.51
16664;BME280;8445;51.270;9.434;2023-07-08T01:52:02;99749.28;;;14.32;55.90
16664;BME280;8445;51.270;9.434;2023-07-08T01:54:29;99744.22;;;14.29;55.54
16664;BME280;8445;51.270;9.434;2023-07-08T01:56:57;99743.97;;;14.32;57.54
16664;BME280;8445;51.270;9.434;2023-07-08T01:59:23;99750.91;;;14.45;54.84
16664;BME280;8445;51.270;9.434;2023-07-08T02:01:50;99738.09;;;14.38;54.75
16664;BME280;8445;51.270;9.434;2023-07-08T02:04:20;99745.66;;;14.33;54.83
16664;BME280;8445;51.270;9.434;2023-07-08T02:06:57;99742.78;;;14.25;61.35
16664;BME280;8445;51.270;9.434;2023-07-08T02:09:24;99742.75;;;14.15;55.41
16664;BME280;8445;51.270;9.434;2023-07-08T02:11:53;99738.09;;;14.07;55.95
16664;BME280;8445;51.270;9.434;2023-07-08T02:14:19;99741.38;;;14.00;55.67
16664;BME280;8445;51.270;9.434;2023-07-08T02:16:44;99734.78;;;13.94;55.93
16664;BME280;8445;51.270;9.434;2023-07-08T02:19:10;99734.59;;;13.86;56.00
16664;BME280;8445;51.270;9.434;2023-07-08T02:21:37;99735.34;;;13.76;56.18
16664;BME280;8445;51.270;9.434;2023-07-08T02:24:03;99729.56;;;13.71;56.59
16664;BME280;8445;51.270;9.434;2023-07-08T02:26:29;99726.59;;;13.64;56.58
16664;BME280;8445;51.270;9.434;2023-07-08T02:28:57;99729.31;;;13.53;57.39
16664;BME280;8445;51.270;9.434;2023-07-08T02:31:23;99737.53;;;13.39;57.57
16664;BME280;8445;51.270;9.434;2023-07-08T02:33:51;99740.34;;;13.26;57.94
16664;BME280;8445;51.270;9.434;2023-07-08T02:36:17;99736.34;;;13.31;58.72
16664;BME280;8445;51.270;9.434;2023-07-08T02:38:43;99743.47;;;13.31;58.06
16664;BME280;8445;51.270;9.434;2023-07-08T02:41:09;99738.91;;;13.22;58.48
16664;BME280;8445;51.270;9.434;2023-07-08T02:43:37;99753.66;;;13.14;58.69
16664;BME280;8445;51.270;9.434;2023-07-08T02:46:02;99743.41;;;13.21;58.60
16664;BME280;8445;51.270;9.434;2023-07-08T02:48:28;99744.38;;;13.20;58.43
16664;BME280;8445;51.270;9.434;2023-07-08T02:51:04;99746.88;;;13.22;63.93
16664;BME280;8445;51.270;9.434;2023-07-08T02:53:30;99739.41;;;13.15;58.81
16664;BME280;8445;51.270;9.434;2023-07-08T02:55:56;99736.06;;;13.02;59.00
16664;BME280;8445;51.270;9.434;2023-07-08T02:58:22;99749.63;;;12.76;59.84
16664;BME280;8445;51.270;9.434;2023-07-08T03:00:54;99742.63;;;12.86;62.47
16664;BME280;8445;51.270;9.434;2023-07-08T03:03:21;99750.09;;;12.81;60.14
16664;BME280;8445;51.270;9.434;2023-07-08T03:06:01;99751.06;;;12.80;63.76
16664;BME280;8445;51.270;9.434;2023-07-08T03:08:28;99743.59;;;12.85;59.70
16664;BME280;8445;51.270;9.434;2023-07-08T03:10:56;99750.09;;;12.93;59.27
16664;BME280;8445;51.270;9.434;2023-07-08T03:13:23;99745.94;;;13.00;59.68
16664;BME280;8445;51.270;9.434;2023-07-08T03:15:49;99754.66;;;13.02;59.79
16664;BME280;8445;51.270;9.434;2023-07-08T03:18:15;99749.31;;;13.02;59.70
16664;BME280;8445;51.270;9.434;2023-07-08T03:20:41;99754.66;;;13.02;59.92
16664;BME280;8445;51.270;9.434;2023-07-08T03:23:12;99752.22;;;12.99;60.24
16664;BME280;8445;51.270;9.434;2023-07-08T03:25:38;99755.41;;;12.93;60.31
16664;BME280;8445;51.270;9.434;2023-07-08T03:28:04;99753.09;;;12.88;60.84
16664;BME280;8445;51.270;9.434;2023-07-08T03:30:41;99756.13;;;12.83;60.75
16664;BME280;8445;51.270;9.434;2023-07-08T03:33:08;99757.34;;;12.90;61.04
16664;BME280;8445;51.270;9.434;2023-07-08T03:35:34;99759.47;;;12.97;61.25
16664;BME280;8445;51.270;9.434;2023-07-08T03:37:59;99763.56;;;13.01;61.32
16664;BME280;8445;51.270;9.434;2023-07-08T03:40:25;99760.31;;;13.09;61.57
16664;BME280;8445;51.270;9.434;2023-07-08T03:42:50;99759.94;;;13.13;61.55
16664;BME280;8445;51.270;9.434;2023-07-08T03:45:16;99762.72;;;13.23;61.30
16664;BME280;8445;51.270;9.434;2023-07-08T03:47:42;99762.56;;;13.36;60.56
16664;BME280;8445;51.270;9.434;2023-07-08T03:50:19;99763.84;;;13.53;60.98
16664;BME280;8445;51.270;9.434;2023-07-08T03:52:46;99764.75;;;13.75;60.11
16664;BME280;8445;51.270;9.434;2023-07-08T03:55:13;99769.94;;;13.98;59.49
16664;BME280;8445;51.270;9.434;2023-07-08T03:57:39;99776.47;;;14.15;58.96
16664;BME280;8445;51.270;9.434;2023-07-08T04:00:05;99773.91;;;14.25;59.58
16664;BME280;8445;51.270;9.434;2023-07-08T04:02:42;99771.94;;;14.27;59.51
16664;BME280;8445;51.270;9.434;2023-07-08T04:05:17;99775.91;;;14.32;60.11
16664;BME280;8445;51.270;9.434;2023-07-08T04:07:45;99774.41;;;14.40;59.71
16664;BME280;8445;51.270;9.434;2023-07-08T04:10:11;99772.91;;;14.47;59.88
16664;BME280;8445;51.270;9.434;2023-07-08T04:12:38;99770.94;;;14.70;59.65
16664;BME280;8445;51.270;9.434;2023-07-08T04:15:05;99776.25;;;15.01;59.77
16664;BME280;8445;51.270;9.434;2023-07-08T04:17:30;99779.63;;;15.13;59.90
16664;BME280;8445;51.270;9.434;2023-07-08T04:19:56;99784.69;;;15.16;60.30
16664;BME280;8445;51.270;9.434;2023-07-08T04:22:22;99780.22;;;15.26;60.13
16664;BME280;8445;51.270;9.434;2023-07-08T04:24:49;99787.09;;;15.39;59.96
16664;BME280;8445;51.270;9.434;2023-07-08T04:27:16;99784.75;;;15.55;59.98
16664;BME280;8445;51.270;9.434;2023-07-08T04:29:42;99792.06;;;15.73;60.14
16664;BME280;8445;51.270;9.434;2023-07-08T04:32:08;99783.09;;;15.94;59.55
16664;BME280;8445;51.270;9.434;2023-07-08T04:34:33;99785.91;;;16.12;59.32
16664;BME280;8445;51.270;9.434;2023-07-08T04:36:59;99790.91;;;16.25;58.78
16664;BME280;8445;51.270;9.434;2023-07-08T04:39:25;99789.50;;;16.40;58.80
16664;BME280;8445;51.270;9.434;2023-07-08T04:41:50;99789.88;;;16.55;58.60
16664;BME280;8445;51.270;9.434;2023-07-08T04:44:16;99787.25;;;16.73;58.20
16664;BME280;8445;51.270;9.434;2023-07-08T04:46:49;99786.63;;;16.89;58.08
16664;BME280;8445;51.270;9.434;2023-07-08T04:49:18;99789.78;;;17.13;58.55
16664;BME280;8445;51.270;9.434;2023-07-08T04:51:44;99787.97;;;17.31;58.56
16664;BME280;8445;51.270;9.434;2023-07-08T04:54:10;99779.44;;;17.46;58.53
16664;BME280;8445;51.270;9.434;2023-07-08T04:56:37;99774.69;;;17.40;59.65
16664;BME280;8445;51.270;9.434;2023-07-08T04:59:03;99783.50;;;17.50;59.31
16664;BME280;8445;51.270;9.434;2023-07-08T05:01:29;99792.31;;;17.60;59.30
16664;BME280;8445;51.270;9.434;2023-07-08T05:03:55;99787.94;;;17.77;58.81
16664;BME280;8445;51.270;9.434;2023-07-08T05:06:20;99785.56;;;17.92;58.81
16664;BME280;8445;51.270;9.434;2023-07-08T05:08:46;99776.84;;;18.08;58.55
16664;BME280;8445;51.270;9.434;2023-07-08T05:11:11;99784.81;;;18.27;58.38
16664;BME280;8445;51.270;9.434;2023-07-08T05:13:37;99778.91;;;18.41;58.32
16664;BME280;8445;51.270;9.434;2023-07-08T05:16:02;99773.97;;;18.55;58.54
16664;BME280;8445;51.270;9.434;2023-07-08T05:18:28;99785.31;;;18.83;58.20
16664;BME280;8445;51.270;9.434;2023-07-08T05:20:53;99785.25;;;19.01;58.10
16664;BME280;8445;51.270;9.434;2023-07-08T05:23:20;99788.97;;;19.08;57.93
16664;BME280;8445;51.270;9.434;2023-07-08T05:25:46;99783.81;;;19.23;57.40
16664;BME280;8445;51.270;9.434;2023-07-08T05:28:11;99789.72;;;19.35;57.40
16664;BME280;8445;51.270;9.434;2023-07-08T05:30:40;99779.69;;;19.54;56.54
16664;BME280;8445;51.270;9.434;2023-07-08T05:33:06;99779.38;;;19.74;56.51
16664;BME280;8445;51.270;9.434;2023-07-08T05:35:31;99779.88;;;19.77;56.17
16664;BME280;8445;51.270;9.434;2023-07-08T05:37:57;99785.09;;;19.70;56.21
16664;BME280;8445;51.270;9.434;2023-07-08T05:40:22;99778.69;;;19.63;56.13
16664;BME280;8445;51.270;9.434;2023-07-08T05:42:48;99781.56;;;19.62;56.41
16664;BME280;8445;51.270;9.434;2023-07-08T05:45:13;99785.41;;;19.67;55.72
16664;BME280;8445;51.270;9.434;2023-07-08T05:47:39;99783.91;;;19.65;56.21
16664;BME280;8445;51.270;9.434;2023-07-08T05:50:05;99781.72;;;19.60;56.16
16664;BME280;8445;51.270;9.434;2023-07-08T05:52:30;99781.38;;;19.63;55.90
16664;BME280;8445;51.270;9.434;2023-07-08T05:54:56;99786.75;;;19.72;55.58
16664;BME280;8445;51.270;9.434;2023-07-08T05:57:24;99783.75;;;19.75;55.60
16664;BME280;8445;51.270;9.434;2023-07-08T05:59:49;99779.88;;;19.77;55.72
16664;BME280;8445;51.270;9.434;2023-07-08T06:02:16;99780.06;;;19.76;55.58
16664;BME280;8445;51.270;9.434;2023-07-08T06:04:42;99785.56;;;19.74;55.73
16664;BME280;8445;51.270;9.434;2023-07-08T06:07:07;99779.38;;;19.74;55.60
16664;BME280;8445;51.270;9.434;2023-07-08T06:09:35;99776.88;;;19.72;55.81
16664;BME280;8445;51.270;9.434;2023-07-08T06:12:01;99782.06;;;19.82;55.68
16664;BME280;8445;51.270;9.434;2023-07-08T06:14:27;99784.81;;;19.90;55.60
16664;BME280;8445;51.270;9.434;2023-07-08T06:16:53;99785.81;;;19.97;55.53
16664;BME280;8445;51.270;9.434;2023-07-08T06:19:20;99784.78;;;20.07;55.39
16664;BME280;8445;51.270;9.434;2023-07-08T06:21:46;99778.72;;;20.13;55.28
16664;BME280;8445;51.270;9.434;2023-07-08T06:24:11;99778.41;;;20.16;55.40
16664;BME280;8445;51.270;9.434;2023-07-08T06:26:37;99782.09;;;20.23;55.42
16664;BME280;8445;51.270;9.434;2023-07-08T06:29:03;99781.75;;;20.26;55.16
16664;BME280;8445;51.270;9.434;2023-07-08T06:31:29;99780.72;;;20.36;55.33
16664;BME280;8445;51.270;9.434;2023-07-08T06:33:55;99778.34;;;20.49;55.27
16664;BME280;8445;51.270;9.434;2023-07-08T06:36:21;99791.44;;;20.61;55.12
16664;BME280;8445;51.270;9.434;2023-07-08T06:38:48;99795.25;;;20.83;54.37
16664;BME280;8445;51.270;9.434;2023-07-08T06:41:13;99787.28;;;20.98;54.64
16664;BME280;8445;51.270;9.434;2023-07-08T06:43:41;99785.69;;;21.12;53.94
16664;BME280;8445;51.270;9.434;2023-07-08T06:46:12;99784.78;;;21.28;53.88
16664;BME280;8445;51.270;9.434;2023-07-08T06:48:41;99779.03;;;21.31;54.01
16664;BME280;8445;51.270;9.434;2023-07-08T06:51:07;99780.31;;;21.43;53.69
16664;BME280;8445;51.270;9.434;2023-07-08T06:53:32;99783.31;;;21.48;53.79
16664;BME280;8445;51.270;9.434;2023-07-08T06:55:58;99785.28;;;21.55;53.95
16664;BME280;8445;51.270;9.434;2023-07-08T06:58:23;99784.09;;;21.57;53.84
16664;BME280;8445;51.270;9.434;2023-07-08T07:00:49;99787.63;;;21.58;53.89
16664;BME280;8445;51.270;9.434;2023-07-08T07:03:14;99782.59;;;21.55;54.00
16664;BME280;8445;51.270;9.434;2023-07-08T07:05:40;99785.97;;;21.57;53.86
16664;BME280;8445;51.270;9.434;2023-07-08T07:08:05;99780.38;;;21.58;53.81
16664;BME280;8445;51.270;9.434;2023-07-08T07:10:33;99776.19;;;21.64;53.38
16664;BME280;8445;51.270;9.434;2023-07-08T07:12:59;99776.78;;;21.74;52.97
16664;BME280;8445;51.270;9.434;2023-07-08T07:15:27;99777.72;;;21.82;52.67
16664;BME280;8445;51.270;9.434;2023-07-08T07:17:55;99783.22;;;21.88;51.90
16664;BME280;8445;51.270;9.434;2023-07-08T07:20:20;99777.13;;;21.95;52.31
16664;BME280;8445;51.270;9.434;2023-07-08T07:22:46;99785.41;;;22.08;51.93
16664;BME280;8445;51.270;9.434;2023-07-08T07:25:11;99785.97;;;22.18;51.37
16664;BME280;8445;51.270;9.434;2023-07-08T07:27:37;99785.38;;;22.31;51.33
16664;BME280;8445;51.270;9.434;2023-07-08T07:30:03;99779.66;;;22.49;50.93
16664;BME280;8445;51.270;9.434;2023-07-08T07:32:29;99775.38;;;22.70;49.24
16664;BME280;8445;51.270;9.434;2023-07-08T07:34:55;99770.00;;;22.85;50.51
16664;BME280;8445;51.270;9.434;2023-07-08T07:37:21;99782.34;;;22.94;50.84
16664;BME280;8445;51.270;9.434;2023-07-08T07:39:47;99777.75;;;23.10;50.68
16664;BME280;8445;51.270;9.434;2023-07-08T07:42:14;99774.22;;;23.09;50.33
16664;BME280;8445;51.270;9.434;2023-07-08T07:44:40;99773.47;;;23.16;49.65
16664;BME280;8445;51.270;9.434;2023-07-08T07:47:09;99780.34;;;23.18;46.50
16664;BME280;8445;51.270;9.434;2023-07-08T07:49:35;99771.53;;;23.24;48.28
16664;BME280;8445;51.270;9.434;2023-07-08T07:52:00;99783.28;;;23.38;49.15
16664;BME280;8445;51.270;9.434;2023-07-08T07:54:26;99783.25;;;23.53;48.81
16664;BME280;8445;51.270;9.434;2023-07-08T07:56:52;99784.41;;;23.66;48.52
16664;BME280;8445;51.270;9.434;2023-07-08T07:59:17;99781.56;;;23.74;47.75
16664;BME280;8445;51.270;9.434;2023-07-08T08:01:43;99775.41;;;23.80;46.77
16664;BME280;8445;51.270;9.434;2023-07-08T08:04:09;99773.72;;;23.79;47.15
16664;BME280;8445;51.270;9.434;2023-07-08T08:06:35;99784.84;;;23.91;47.32
16664;BME280;8445;51.270;9.434;2023-07-08T08:09:01;99788.66;;;23.97;47.64
16664;BME280;8445;51.270;9.434;2023-07-08T08:11:26;99779.97;;;24.02;47.44
16664;BME280;8445;51.270;9.434;2023-07-08T08:13:54;99776.72;;;24.06;46.21
16664;BME280;8445;51.270;9.434;2023-07-08T08:16:20;99780.22;;;24.07;47.02
16664;BME280;8445;51.270;9.434;2023-07-08T08:18:46;99780.31;;;24.13;46.15
16664;BME280;8445;51.270;9.434;2023-07-08T08:21:11;99791.16;;;24.20;46.13
16664;BME280;8445;51.270;9.434;2023-07-08T08:23:38;99793.72;;;24.28;45.87
16664;BME280;8445;51.270;9.434;2023-07-08T08:26:04;99798.75;;;24.38;46.38
16664;BME280;8445;51.270;9.434;2023-07-08T08:28:29;99801.94;;;24.42;46.39
16664;BME280;8445;51.270;9.434;2023-07-08T08:30:55;99801.31;;;24.47;46.56
16664;BME280;8445;51.270;9.434;2023-07-08T08:33:20;99800.28;;;24.48;45.63
16664;BME280;8445;51.270;9.434;2023-07-08T08:35:46;99793.09;;;24.62;44.84
16664;BME280;8445;51.270;9.434;2023-07-08T08:38:12;99805.72;;;24.83;45.35
16664;BME280;8445;51.270;9.434;2023-07-08T08:40:40;99798.91;;;24.94;43.98
16664;BME280;8445;51.270;9.434;2023-07-08T08:43:31;99807.53;;;25.11;42.09
16664;BME280;8445;51.270;9.434;2023-07-08T08:51:19;99799.47;;;25.38;44.33
16664;BME280;8445;51.270;9.434;2023-07-08T08:53:45;99806.81;;;25.44;44.69
16664;BME280;8445;51.270;9.434;2023-07-08T08:56:27;99800.59;;;25.50;41.20
16664;BME280;8445;51.270;9.434;2023-07-08T09:01:38;99803.34;;;25.64;43.53
16664;BME280;8445;51.270;9.434;2023-07-08T09:04:09;99794.81;;;25.67;39.57
16664;BME280;8445;51.270;9.434;2023-07-08T09:06:38;99792.94;;;25.74;43.06
16664;BME280;8445;51.270;9.434;2023-07-08T09:09:19;99789.63;;;25.85;39.03
16664;BME280;8445;51.270;9.434;2023-07-08T09:12:04;99789.81;;;26.04;40.65
16664;BME280;8445;51.270;9.434;2023-07-08T09:14:33;99786.50;;;26.15;42.00
16664;BME280;8445;51.270;9.434;2023-07-08T09:17:19;99782.31;;;26.26;41.06
16664;BME280;8445;51.270;9.434;2023-07-08T09:22:46;99785.44;;;26.43;37.90
16664;BME280;8445;51.270;9.434;2023-07-08T09:28:00;99778.94;;;26.58;41.22
16664;BME280;8445;51.270;9.434;2023-07-08T09:30:26;99782.25;;;26.60;40.25
16664;BME280;8445;51.270;9.434;2023-07-08T09:32:54;99783.94;;;26.68;41.00
16664;BME280;8445;51.270;9.434;2023-07-08T09:35:27;99784.75;;;26.75;40.32
16664;BME280;8445;51.270;9.434;2023-07-08T09:37:54;99778.28;;;26.83;41.29
16664;BME280;8445;51.270;9.434;2023-07-08T09:40:31;99777.00;;;26.92;37.74
16664;BME280;8445;51.270;9.434;2023-07-08T09:43:20;99778.63;;;27.00;37.14
16664;BME280;8445;51.270;9.434;2023-07-08T09:45:48;99780.88;;;27.10;39.48
16664;BME280;8445;51.270;9.434;2023-07-08T09:48:19;99774.75;;;27.21;40.45
16664;BME280;8445;51.270;9.434;2023-07-08T09:50:48;99783.94;;;27.27;40.55
16664;BME280;8445;51.270;9.434;2023-07-08T09:53:14;99775.13;;;27.31;40.26
16664;BME280;8445;51.270;9.434;2023-07-08T09:55:40;99780.75;;;27.36;40.25
16664;BME280;8445;51.270;9.434;2023-07-08T09:58:11;99775.94;;;27.38;36.83
16664;BME280;8445;51.270;9.434;2023-07-08T10:00:40;99770.25;;;27.47;39.50
16664;BME280;8445;51.270;9.434;2023-07-08T10:03:22;99772.13;;;27.53;37.00
16664;BME280;8445;51.270;9.434;2023-07-08T10:05:49;99776.84;;;27.64;39.17
16664;BME280;8445;51.270;9.434;2023-07-08T10:08:20;99770.50;;;27.71;38.02
16664;BME280;8445;51.270;9.434;2023-07-08T10:13:45;99770.25;;;27.79;36.34
16664;BME280;8445;51.270;9.434;2023-07-08T10:16:31;99773.97;;;27.85;35.73
16664;BME280;8445;51.270;9.434;2023-07-08T10:18:58;99763.03;;;27.91;38.08
16664;BME280;8445;51.270;9.434;2023-07-08T10:24:21;99758.56;;;28.04;35.10
16664;BME280;8445;51.270;9.434;2023-07-08T10:26:58;99766.00;;;28.15;35.11
16664;BME280;8445;51.270;9.434;2023-07-08T10:29:39;99764.69;;;28.24;35.45
16664;BME280;8445;51.270;9.434;2023-07-08T10:32:33;99766.09;;;28.27;33.83
16664;BME280;8445;51.270;9.434;2023-07-08T10:37:57;99759.53;;;28.35;33.31
16664;BME280;8445;51.270;9.434;2023-07-08T10:40:31;99758.63;;;28.41;35.83
16664;BME280;8445;51.270;9.434;2023-07-08T10:43:09;99751.47;;;28.47;33.87
16664;BME280;8445;51.270;9.434;2023-07-08T10:45:53;99753.28;;;28.53;31.10
16664;BME280;8445;51.270;9.434;2023-07-08T10:55:28;99742.84;;;28.68;35.63
16664;BME280;8445;51.270;9.434;2023-07-08T10:57:53;99744.47;;;28.76;31.40
16664;BME280;8445;51.270;9.434;2023-07-08T11:06:06;99739.44;;;28.92;30.93
16664;BME280;8445;51.270;9.434;2023-07-08T11:08:44;99739.97;;;29.01;32.45
16664;BME280;8445;51.270;9.434;2023-07-08T11:14:08;99742.00;;;29.05;34.63
16664;BME280;8445;51.270;9.434;2023-07-08T11:16:50;99742.00;;;29.05;31.65
16664;BME280;8445;51.270;9.434;2023-07-08T11:19:32;99732.75;;;29.06;31.03
16664;BME280;8445;51.270;9.434;2023-07-08T11:22:03;99735.41;;;29.13;33.65
16664;BME280;8445;51.270;9.434;2023-07-08T11:27:37;99736.84;;;29.16;30.24
16664;BME280;8445;51.270;9.434;2023-07-08T11:30:17;99738.50;;;29.17;33.92
16664;BME280;8445;51.270;9.434;2023-07-08T11:32:47;99735.28;;;29.08;31.67
16664;BME280;8445;51.270;9.434;2023-07-08T11:35:22;99734.28;;;29.02;28.97
16664;BME280;8445;51.270;9.434;2023-07-08T11:37:48;99728.38;;;29.05;30.04
16664;BME280;8445;51.270;9.434;2023-07-08T11:40:19;99717.53;;;29.17;31.23
16664;BME280;8445;51.270;9.434;2023-07-08T11:42:48;99719.72;;;29.27;29.55
16664;BME280;8445;51.270;9.434;2023-07-08T11:47:48;99713.03;;;29.41;32.17
16664;BME280;8445;51.270;9.434;2023-07-08T11:50:32;99709.47;;;29.53;31.18
16664;BME280;8445;51.270;9.434;2023-07-08T11:53:09;99715.91;;;29.58;32.87
16664;BME280;8445;51.270;9.434;2023-07-08T11:55:56;99713.06;;;29.65;31.39
16664;BME280;8445;51.270;9.434;2023-07-08T11:58:31;99710.59;;;29.64;30.36
16664;BME280;8445;51.270;9.434;2023-07-08T12:03:31;99705.22;;;29.57;30.55
16664;BME280;8445;51.270;9.434;2023-07-08T12:05:59;99703.56;;;29.56;31.90
16664;BME280;8445;51.270;9.434;2023-07-08T12:08:37;99707.34;;;29.55;29.88
16664;BME280;8445;51.270;9.434;2023-07-08T12:11:11;99697.63;;;29.59;30.17
16664;BME280;8445;51.270;9.434;2023-07-08T12:13:37;99697.63;;;29.59;29.48
16664;BME280;8445;51.270;9.434;2023-07-08T12:16:08;99689.84;;;29.75;31.84
16664;BME280;8445;51.270;9.434;2023-07-08T12:18:36;99682.38;;;29.82;32.04
16664;BME280;8445;51.270;9.434;2023-07-08T12:21:04;99697.78;;;29.88;32.18
16664;BME280;8445;51.270;9.434;2023-07-08T12:23:30;99697.06;;;29.93;32.14
16664;BME280;8445;51.270;9.434;2023-07-08T12:25:57;99693.66;;;29.97;31.46
16664;BME280;8445;51.270;9.434;2023-07-08T12:28:25;99687.47;;;29.90;31.68
16664;BME280;8445;51.270;9.434;2023-07-08T12:30:51;99686.41;;;29.91;31.62
16664;BME280;8445;51.270;9.434;2023-07-08T12:35:50;99686.75;;;29.83;31.09
16664;BME280;8445;51.270;9.434;2023-07-08T12:38:30;99678.25;;;29.91;30.33
16664;BME280;8445;51.270;9.434;2023-07-08T12:41:02;99684.88;;;29.95;29.77
16664;BME280;8445;51.270;9.434;2023-07-08T12:43:31;99679.56;;;30.00;31.69
16664;BME280;8445;51.270;9.434;2023-07-08T12:45:56;99679.06;;;30.03;31.34
16664;BME280;8445;51.270;9.434;2023-07-08T12:48:22;99678.72;;;30.12;31.12
16664;BME280;8445;51.270;9.434;2023-07-08T12:50:47;99672.78;;;30.15;30.76
16664;BME280;8445;51.270;9.434;2023-07-08T12:53:15;99670.75;;;30.22;30.80
16664;BME280;8445;51.270;9.434;2023-07-08T12:55:42;99671.94;;;30.26;30.75
16664;BME280;8445;51.270;9.434;2023-07-08T12:58:25;99667.06;;;30.28;29.41
16664;BME280;8445;51.270;9.434;2023-07-08T13:00:53;99670.72;;;30.34;28.76
16664;BME280;8445;51.270;9.434;2023-07-08T13:03:22;99676.06;;;30.41;31.50
16664;BME280;8445;51.270;9.434;2023-07-08T13:05:49;99671.09;;;30.38;29.16
16664;BME280;8445;51.270;9.434;2023-07-08T13:08:18;99671.22;;;30.31;27.64
16664;BME280;8445;51.270;9.434;2023-07-08T13:10:44;99674.03;;;30.36;29.76
16664;BME280;8445;51.270;9.434;2023-07-08T13:13:19;99672.75;;;30.39;26.99
16664;BME280;8445;51.270;9.434;2023-07-08T13:15:46;99665.34;;;30.51;30.02
16664;BME280;8445;51.270;9.434;2023-07-08T13:18:32;99671.16;;;30.55;28.25
16664;BME280;8445;51.270;9.434;2023-07-08T13:20:58;99667.03;;;30.52;30.26
16664;BME280;8445;51.270;9.434;2023-07-08T13:23:26;99666.09;;;30.58;29.62
16664;BME280;8445;51.270;9.434;2023-07-08T13:25:53;99666.16;;;30.64;29.70
16664;BME280;8445;51.270;9.434;2023-07-08T13:31:00;99659.72;;;30.70;29.59
16664;BME280;8445;51.270;9.434;2023-07-08T13:33:30;99655.25;;;30.64;30.11
16664;BME280;8445;51.270;9.434;2023-07-08T13:35:57;99654.25;;;30.82;30.06
16664;BME280;8445;51.270;9.434;2023-07-08T13:38:25;99656.59;;;31.07;29.67
16664;BME280;8445;51.270;9.434;2023-07-08T13:40:58;99650.97;;;31.14;29.09
16664;BME280;8445;51.270;9.434;2023-07-08T13:43:29;99655.75;;;31.06;29.24
16664;BME280;8445;51.270;9.434;2023-07-08T13:45:57;99655.94;;;31.00;30.03
16664;BME280;8445;51.270;9.434;2023-07-08T13:48:27;99647.06;;;30.93;28.74
16664;BME280;8445;51.270;9.434;2023-07-08T13:53:40;99647.81;;;30.88;27.92
16664;BME280;8445;51.270;9.434;2023-07-08T13:56:19;99656.22;;;30.86;29.34
16664;BME280;8445;51.270;9.434;2023-07-08T13:58:50;99654.06;;;30.88;29.89
16664;BME280;8445;51.270;9.434;2023-07-08T14:01:23;99652.31;;;30.82;27.83
16664;BME280;8445;51.270;9.434;2023-07-08T14:03:51;99649.84;;;30.81;29.76
16664;BME280;8445;51.270;9.434;2023-07-08T14:06:21;99656.13;;;30.81;29.74
16664;BME280;8445;51.270;9.434;2023-07-08T14:08:48;99661.34;;;30.83;30.01
16664;BME280;8445;51.270;9.434;2023-07-08T14:11:32;99659.44;;;30.83;29.25
16664;BME280;8445;51.270;9.434;2023-07-08T14:13:58;99653.06;;;30.78;28.45
16664;BME280;8445;51.270;9.434;2023-07-08T14:16:26;99653.16;;;30.83;28.95